Main page
METAR-TAF:

METAR-TAF

Airports :

Ostend–Bruges International Airport

Ostend, Belgium

latitude: 51-12N, longitude: 002-52E, elevation: 4 m

Current weather observation

The report was made 17 minutes ago, at 20:20 UTC
Wind 8 kt from the North/Northeast
Temperature 12°C
Humidity 67%
Pressure 1030 hPa
Visibility 10 km or more
Few clouds at a height of 2600 ft

METAR: EBOS 222020Z 02008KT 9999 FEW026 12/06 Q1030 NOSIG

Time: 22:37 (20:37 UTC)

Forecast

The report was made 3 hours and 27 minutes ago, at 17:10 UTC
Forecast valid from 22 at 18 UTC to 23 at 24 UTC
Wind 11 kt from the North
Visibility 10 km or more
Few clouds at a height of 3000 ft
Becoming
from 22 at 23 UTC to 23 at 01 UTC
Wind 6 kt from the North/Northwest
Becoming
from 23 at 09 UTC to 23 at 11 UTC
Wind 10 kt from the West
Becoming
from 23 at 22 UTC to 23 at 24 UTC
Wind 6 kt from the West/Southwest

TAF: EBOS 221710Z 2218/2324 01011KT 9999 FEW030 BECMG 2223/2301 34006KT BECMG 2309/2311 28010KT BECMG 2322/2324 24006KT

Weather observations and forecasts of more than 4000 airports (METAR and TAF reports).

The available stations are represented by yellow and red dots on the map.

Hover mouse over dot to see the name of the station.

Then click to see weather observations and forecasts.

To change the map : click on the green buttons with a black cross to zoom in, on the green button with a dash to zoom out, or on the green arrows for adjacent maps.


METAR-TAF: